createdAt,value
2023-04-27T00:00:26.326Z,101430.88
2023-04-27T00:02:56.334Z,101426.25
2023-04-27T00:05:26.704Z,101428.69
2023-04-27T00:07:59.074Z,101420.13
2023-04-27T00:10:28.803Z,101413.59
2023-04-27T00:12:58.527Z,101431.69
2023-04-27T00:15:28.431Z,101421.78
2023-04-27T00:17:58.527Z,101414.22
2023-04-27T00:20:28.653Z,101408.88
2023-04-27T00:23:00.987Z,101427.50
2023-04-27T00:25:30.773Z,101420.44
2023-04-27T00:28:00.525Z,101415.22
2023-04-27T00:30:30.361Z,101412.66
2023-04-27T00:33:00.179Z,101423.66
2023-04-27T00:35:30.049Z,101418.31
2023-04-27T00:38:04.089Z,101417.63
2023-04-27T00:40:34.087Z,101419.81
2023-04-27T00:43:03.914Z,101415.09
2023-04-27T00:45:33.845Z,101424.63
2023-04-27T00:48:04.249Z,101422.63
2023-04-27T00:50:34.360Z,101431.22
2023-04-27T00:53:06.698Z,101432.69
2023-04-27T00:55:36.452Z,101434.88
2023-04-27T00:58:06.231Z,101416.47
2023-04-27T01:00:40.207Z,101424.06
2023-04-27T01:03:10.447Z,101431.63
2023-04-27T01:05:40.998Z,101416.97
2023-04-27T01:08:13.621Z,101430.09
2023-04-27T01:10:43.528Z,101415.44
2023-04-27T01:13:13.740Z,101433.19
2023-04-27T01:15:44.147Z,101441.31
2023-04-27T01:18:13.968Z,101439.13
2023-04-27T01:20:45.229Z,101426.16
2023-04-27T01:23:19.200Z,101438.19
2023-04-27T01:25:48.941Z,101450.72
2023-04-27T01:28:18.691Z,101474.53
2023-04-27T01:30:48.421Z,101424.31
2023-04-27T01:33:18.177Z,101444.94
2023-04-27T01:35:51.498Z,101475.56
2023-04-27T01:38:24.321Z,101478.59
2023-04-27T01:40:55.415Z,101464.25
2023-04-27T01:43:25.168Z,101467.72
2023-04-27T01:45:54.913Z,101480.09
2023-04-27T01:48:24.744Z,101442.84
2023-04-27T01:50:54.736Z,101475.81
2023-04-27T01:53:27.050Z,101493.16
2023-04-27T01:55:57.393Z,101508.19
2023-04-27T01:58:27.905Z,101490.50
2023-04-27T02:00:57.772Z,101500.06
2023-04-27T02:03:27.692Z,101501.03
2023-04-27T02:05:57.617Z,101508.91
2023-04-27T02:08:29.993Z,101493.47
2023-04-27T02:10:59.749Z,101493.91
2023-04-27T02:13:29.530Z,101507.66
2023-04-27T02:16:02.279Z,101513.75
2023-04-27T02:18:32.619Z,101503.06
2023-04-27T02:21:02.470Z,101512.00
2023-04-27T02:23:35.830Z,101517.16
2023-04-27T02:26:06.461Z,101489.00
2023-04-27T02:28:36.238Z,101497.06
2023-04-27T02:31:06.515Z,101521.16
2023-04-27T02:33:36.276Z,101503.56
2023-04-27T02:36:06.434Z,101496.31
2023-04-27T02:38:38.821Z,101512.84
2023-04-27T02:41:08.609Z,101487.47
2023-04-27T02:43:38.343Z,101480.25
2023-04-27T02:46:09.809Z,101482.63
2023-04-27T02:48:39.654Z,101507.56
2023-04-27T02:51:09.775Z,101507.41
2023-04-27T02:53:42.144Z,101502.34
2023-04-27T02:56:11.910Z,101509.72
2023-04-27T02:58:41.636Z,101499.47
2023-04-27T03:01:11.695Z,101489.22
2023-04-27T03:03:41.665Z,101504.56
2023-04-27T03:06:11.529Z,101458.16
2023-04-27T03:08:43.959Z,101517.63
2023-04-27T03:11:13.748Z,101503.34
2023-04-27T03:13:44.543Z,101510.72
2023-04-27T03:16:14.776Z,101458.91
2023-04-27T03:18:44.580Z,101470.03
2023-04-27T03:21:17.051Z,101512.31
2023-04-27T03:23:49.419Z,101471.78
2023-04-27T03:26:20.551Z,101517.63
2023-04-27T03:28:50.296Z,101502.00
2023-04-27T03:31:20.063Z,101507.06
2023-04-27T03:33:49.836Z,101503.25
2023-04-27T03:36:19.566Z,101508.56
2023-04-27T03:38:51.863Z,101508.94
2023-04-27T03:41:22.289Z,101498.19
2023-04-27T03:43:53.647Z,101506.91
2023-04-27T03:46:26.650Z,101511.78
2023-04-27T03:48:56.436Z,101492.31
2023-04-27T03:51:27.188Z,101525.06
2023-04-27T03:53:59.514Z,101498.16
2023-04-27T03:56:29.369Z,101520.41
2023-04-27T03:58:59.276Z,101513.69
2023-04-27T04:01:36.537Z,101519.34
2023-04-27T04:04:06.406Z,101522.69
2023-04-27T04:06:36.560Z,101497.16
2023-04-27T04:09:08.917Z,101527.75
2023-04-27T04:11:38.942Z,101525.41
2023-04-27T04:14:10.022Z,101524.63
2023-04-27T04:16:39.854Z,101471.72
2023-04-27T04:19:09.659Z,101524.69
2023-04-27T04:21:39.861Z,101519.13
2023-04-27T04:24:13.731Z,101521.03
2023-04-27T04:26:43.518Z,101503.47
2023-04-27T04:29:13.731Z,101519.56
2023-04-27T04:31:43.827Z,101530.38
2023-04-27T04:34:14.675Z,101516.44
2023-04-27T04:36:44.552Z,101522.44
2023-04-27T04:39:17.446Z,101514.78
2023-04-27T04:41:47.415Z,101540.16
2023-04-27T04:44:17.269Z,101550.53
2023-04-27T04:46:48.062Z,101550.78
2023-04-27T04:49:17.853Z,101547.31
2023-04-27T04:51:48.154Z,101520.59
2023-04-27T04:54:20.532Z,101546.00
2023-04-27T04:56:51.120Z,101536.88
2023-04-27T04:59:21.520Z,101525.66
2023-04-27T05:01:51.372Z,101525.28
2023-04-27T05:04:21.508Z,101536.94
2023-04-27T05:06:51.398Z,101539.31
2023-04-27T05:09:23.711Z,101548.25
2023-04-27T05:11:53.428Z,101548.09
2023-04-27T05:14:23.182Z,101537.06
2023-04-27T05:16:52.918Z,101557.28
2023-04-27T05:19:22.717Z,101541.59
2023-04-27T05:21:52.472Z,101548.09
2023-04-27T05:24:24.814Z,101550.69
2023-04-27T05:26:54.590Z,101562.03
2023-04-27T05:29:24.782Z,101563.44
2023-04-27T05:31:54.611Z,101582.97
2023-04-27T05:34:24.441Z,101553.56
2023-04-27T05:36:54.190Z,101559.41
2023-04-27T05:39:26.563Z,101548.72
2023-04-27T05:41:56.457Z,101518.94
2023-04-27T05:44:29.491Z,101522.00
2023-04-27T05:46:59.316Z,101545.28
2023-04-27T05:49:29.062Z,101587.06
2023-04-27T05:51:59.236Z,101579.19
2023-04-27T05:54:31.937Z,101566.72
2023-04-27T05:57:01.765Z,101562.25
2023-04-27T05:59:31.684Z,101587.59
2023-04-27T06:02:01.515Z,101593.53
2023-04-27T06:04:33.007Z,101570.53
2023-04-27T06:07:04.264Z,101588.78
2023-04-27T06:09:36.967Z,101534.41
2023-04-27T06:12:07.358Z,101553.03
2023-04-27T06:14:39.789Z,101578.06
2023-04-27T06:17:09.547Z,101591.03
2023-04-27T06:19:39.447Z,101586.34
2023-04-27T06:22:09.186Z,101583.34
2023-04-27T06:24:42.707Z,101591.94
2023-04-27T06:27:13.363Z,101598.84
2023-04-27T06:29:43.129Z,101598.31
2023-04-27T06:32:12.890Z,101605.91
2023-04-27T06:34:42.709Z,101614.38
2023-04-27T06:37:12.545Z,101597.53
2023-04-27T06:39:44.917Z,101581.06
2023-04-27T06:42:14.860Z,101607.44
2023-04-27T06:44:45.068Z,101557.66
2023-04-27T06:47:14.854Z,101580.19
2023-04-27T06:49:44.584Z,101604.59
2023-04-27T06:52:14.362Z,101586.22
2023-04-27T06:54:46.959Z,101511.00
2023-04-27T06:57:16.798Z,101558.38
2023-04-27T06:59:46.600Z,101598.53
2023-04-27T07:02:16.431Z,101576.06
2023-04-27T07:04:46.769Z,101593.22
2023-04-27T07:07:16.592Z,101573.25
2023-04-27T07:09:48.942Z,101575.84
2023-04-27T07:12:18.799Z,101566.53
2023-04-27T07:14:50.870Z,101598.38
2023-04-27T07:17:20.917Z,101561.31
2023-04-27T07:19:50.760Z,101603.75
2023-04-27T07:22:20.786Z,101576.94
2023-04-27T07:24:53.473Z,101601.25
2023-04-27T07:27:23.333Z,101594.69
2023-04-27T07:29:53.507Z,101384.38
2023-04-27T07:32:24.017Z,101591.75
2023-04-27T07:34:54.542Z,101530.25
2023-04-27T07:37:24.604Z,101605.78
2023-04-27T07:39:57.898Z,101600.94
2023-04-27T07:42:27.905Z,101610.47
2023-04-27T07:44:57.732Z,101589.72
2023-04-27T07:47:28.271Z,101593.75
2023-04-27T07:49:58.133Z,101590.19
2023-04-27T07:52:27.940Z,101552.06
2023-04-27T07:55:00.255Z,101590.88
2023-04-27T07:57:30.194Z,101597.91
2023-04-27T08:00:00.330Z,101551.31
2023-04-27T08:02:31.873Z,101582.59
2023-04-27T08:05:03.121Z,101561.72
2023-04-27T08:07:34.632Z,101586.47
2023-04-27T08:10:11.126Z,101585.38
2023-04-27T08:12:40.927Z,101579.38
2023-04-27T08:15:12.231Z,101574.25
2023-04-27T08:17:43.803Z,101569.84
2023-04-27T08:20:14.799Z,101584.69
2023-04-27T08:22:44.998Z,101566.72
2023-04-27T08:25:17.347Z,101588.78
2023-04-27T08:27:47.118Z,101585.91
2023-04-27T08:30:17.400Z,101557.72
2023-04-27T08:32:47.887Z,101579.97
2023-04-27T08:35:17.869Z,101587.53
2023-04-27T08:37:47.629Z,101581.63
2023-04-27T08:40:20.614Z,101586.09
2023-04-27T08:42:58.003Z,101550.69
2023-04-27T08:45:28.997Z,101568.88
2023-04-27T08:47:58.780Z,101575.50
2023-04-27T08:50:28.824Z,101581.84
2023-04-27T08:52:58.695Z,101581.44
2023-04-27T08:55:31.160Z,101584.25
2023-04-27T08:58:01.880Z,101547.91
2023-04-27T09:00:42.386Z,101568.09
2023-04-27T09:03:22.362Z,101569.28
2023-04-27T09:06:03.444Z,101572.56
2023-04-27T09:08:44.621Z,101561.94
2023-04-27T09:11:17.280Z,101583.56
2023-04-27T09:13:47.903Z,101576.75
2023-04-27T09:16:17.771Z,101568.41
2023-04-27T09:18:47.520Z,101583.91
2023-04-27T09:21:25.878Z,101577.34
2023-04-27T09:23:56.545Z,101560.34
2023-04-27T09:26:32.008Z,101548.53
2023-04-27T09:29:01.768Z,101577.97
2023-04-27T09:31:34.610Z,101576.63
2023-04-27T09:34:05.200Z,101577.44
2023-04-27T09:36:35.146Z,101577.72
2023-04-27T09:39:07.323Z,101570.25
2023-04-27T09:41:39.820Z,101548.28
2023-04-27T09:44:11.238Z,101566.44
2023-04-27T09:46:41.335Z,101545.63
2023-04-27T09:49:11.812Z,101544.63
2023-04-27T09:51:41.746Z,101551.13
2023-04-27T09:54:14.026Z,101531.41
2023-04-27T09:56:54.029Z,101554.03
2023-04-27T09:59:39.330Z,101551.41
2023-04-27T10:02:23.587Z,101549.72
2023-04-27T10:05:19.660Z,101542.66
2023-04-27T10:07:49.892Z,101547.81
2023-04-27T10:10:20.925Z,101553.84
2023-04-27T10:13:04.562Z,101537.88
2023-04-27T10:15:34.495Z,101530.91
2023-04-27T10:18:08.879Z,101539.34
2023-04-27T10:20:41.114Z,101542.78
2023-04-27T10:23:10.912Z,101546.00
2023-04-27T10:25:42.148Z,101548.50
2023-04-27T10:28:20.767Z,101536.88
2023-04-27T10:30:52.104Z,101544.63
2023-04-27T10:33:25.328Z,101544.78
2023-04-27T10:36:00.555Z,101524.38
2023-04-27T10:38:33.277Z,101531.75
2023-04-27T10:41:05.820Z,101526.34
2023-04-27T10:43:39.189Z,101515.66
2023-04-27T10:46:14.512Z,101535.66
2023-04-27T10:48:44.557Z,101540.44
2023-04-27T10:51:18.518Z,101534.88
2023-04-27T10:53:48.286Z,101528.22
2023-04-27T10:56:20.381Z,101520.16
2023-04-27T10:58:52.829Z,101505.84
2023-04-27T11:01:29.949Z,101515.81
2023-04-27T11:04:00.954Z,101506.97
2023-04-27T11:06:32.308Z,101518.44
2023-04-27T11:09:02.384Z,101515.88
2023-04-27T11:11:40.092Z,101520.47
2023-04-27T11:14:12.648Z,101525.09
2023-04-27T11:16:49.102Z,101523.50
2023-04-27T11:19:18.835Z,101528.94
2023-04-27T11:21:48.583Z,101526.69
2023-04-27T11:24:18.326Z,101519.00
2023-04-27T11:26:54.950Z,101525.19
2023-04-27T11:29:27.336Z,101520.13
2023-04-27T11:31:57.090Z,101480.63
2023-04-27T11:34:28.003Z,101512.34
2023-04-27T11:37:16.700Z,101513.09
2023-04-27T11:39:48.674Z,101505.84
2023-04-27T11:42:20.829Z,101511.81
2023-04-27T11:45:01.909Z,101463.25
2023-04-27T11:47:33.988Z,101489.56
2023-04-27T11:50:05.271Z,101476.66
2023-04-27T11:52:36.792Z,101483.94
2023-04-27T11:55:09.166Z,101486.28
2023-04-27T11:57:39.587Z,101456.84
2023-04-27T12:00:14.751Z,101506.63
2023-04-27T12:02:46.568Z,101486.19
2023-04-27T12:05:17.517Z,101478.88
2023-04-27T12:07:47.424Z,101471.28
2023-04-27T12:10:17.370Z,101487.69
2023-04-27T12:12:47.147Z,101480.72
2023-04-27T12:15:19.715Z,101494.47
2023-04-27T12:17:49.588Z,101487.00
2023-04-27T12:20:19.578Z,101440.59
2023-04-27T12:22:49.350Z,101479.91
2023-04-27T12:25:19.911Z,101442.97
2023-04-27T12:27:50.312Z,101491.66
2023-04-27T12:30:23.230Z,101485.56
2023-04-27T12:32:53.099Z,101479.78
2023-04-27T12:35:22.931Z,101465.22
2023-04-27T12:37:52.928Z,101483.28
2023-04-27T12:40:23.440Z,101479.66
2023-04-27T12:42:53.232Z,101451.50
2023-04-27T12:45:25.582Z,101451.31
2023-04-27T12:48:03.395Z,101468.66
2023-04-27T12:50:34.531Z,101469.66
2023-04-27T12:53:05.029Z,101477.34
2023-04-27T12:55:34.934Z,101476.44
2023-04-27T12:58:04.963Z,101473.84
2023-04-27T13:00:37.359Z,101469.44
2023-04-27T13:03:08.040Z,101446.50
2023-04-27T13:05:38.459Z,101473.00
2023-04-27T13:08:08.509Z,101471.41
2023-04-27T13:10:38.293Z,101468.44
2023-04-27T13:13:08.057Z,101458.63
2023-04-27T13:15:40.657Z,101440.03
2023-04-27T13:18:10.575Z,101468.13
2023-04-27T13:20:40.338Z,101479.56
2023-04-27T13:23:10.240Z,101484.91
2023-04-27T13:25:39.973Z,101463.31
2023-04-27T13:28:09.736Z,101474.44
2023-04-27T13:30:42.079Z,101469.50
2023-04-27T13:33:22.710Z,101463.81
2023-04-27T13:35:53.762Z,101471.06
2023-04-27T13:38:23.592Z,101463.78
2023-04-27T13:40:53.299Z,101468.03
2023-04-27T13:43:23.135Z,101460.13
2023-04-27T13:45:57.215Z,101461.16
2023-04-27T13:48:28.594Z,101398.94
2023-04-27T13:50:58.729Z,101452.53
2023-04-27T13:53:29.171Z,101451.97
2023-04-27T13:56:00.780Z,101456.78
2023-04-27T13:58:30.962Z,101450.19
2023-04-27T14:01:03.465Z,101450.03
2023-04-27T14:03:34.042Z,101432.38
2023-04-27T14:06:04.315Z,101425.78
2023-04-27T14:08:34.458Z,101427.69
2023-04-27T14:11:04.306Z,101424.94
2023-04-27T14:13:34.105Z,101435.00
2023-04-27T14:16:06.882Z,101423.03
2023-04-27T14:18:36.706Z,101436.47
2023-04-27T14:21:07.547Z,101415.94
2023-04-27T14:23:37.788Z,101402.19
2023-04-27T14:26:07.858Z,101415.91
2023-04-27T14:28:37.634Z,101415.91
2023-04-27T14:31:09.963Z,101372.81
2023-04-27T14:33:40.511Z,101422.31
2023-04-27T14:36:10.733Z,101395.94
2023-04-27T14:38:40.547Z,101416.78
2023-04-27T14:41:10.879Z,101420.19
2023-04-27T14:43:40.617Z,101346.69
2023-04-27T14:48:49.855Z,101407.06
2023-04-27T14:51:19.790Z,101396.72
2023-04-27T14:53:49.558Z,101395.94
2023-04-27T14:56:19.316Z,101409.19
2023-04-27T14:58:49.050Z,101386.84
2023-04-27T15:01:21.683Z,101403.44
2023-04-27T15:03:53.246Z,101396.34
2023-04-27T15:06:24.408Z,101398.88
2023-04-27T15:08:54.162Z,101407.59
2023-04-27T15:11:23.914Z,101391.88
2023-04-27T15:13:53.713Z,101401.38
2023-04-27T15:16:26.188Z,101400.47
2023-04-27T15:18:55.929Z,101405.59
2023-04-27T15:21:25.666Z,101400.59
2023-04-27T15:23:55.485Z,101398.91
2023-04-27T15:26:25.309Z,101399.88
2023-04-27T15:28:55.164Z,101390.59
2023-04-27T15:31:27.647Z,101371.78
2023-04-27T15:33:57.434Z,101350.81
2023-04-27T15:36:28.595Z,101333.91
2023-04-27T15:38:58.358Z,101391.44
2023-04-27T15:41:28.112Z,101372.72
2023-04-27T15:43:57.861Z,101361.53
2023-04-27T15:46:30.596Z,101379.31
2023-04-27T15:49:00.367Z,101375.97
2023-04-27T15:51:30.102Z,101382.84
2023-04-27T15:53:59.874Z,101377.88
2023-04-27T15:56:30.897Z,101377.00
2023-04-27T15:59:01.016Z,101377.53
2023-04-27T16:01:33.402Z,101375.88
2023-04-27T16:04:03.391Z,101367.16
2023-04-27T16:06:34.890Z,101362.81
2023-04-27T16:09:09.817Z,101343.13
2023-04-27T16:11:40.245Z,101362.91
2023-04-27T16:14:09.967Z,101329.97
2023-04-27T16:16:42.340Z,101362.09
2023-04-27T16:19:12.474Z,101361.94
2023-04-27T16:21:42.398Z,101354.44
2023-04-27T16:24:12.604Z,101338.06
2023-04-27T16:26:42.321Z,101360.53
2023-04-27T16:29:12.237Z,101359.72
2023-04-27T16:31:45.650Z,101345.88
2023-04-27T16:34:15.506Z,101345.91
2023-04-27T16:36:46.866Z,101343.47
2023-04-27T16:39:19.050Z,101357.31
2023-04-27T16:41:48.875Z,101359.66
2023-04-27T16:44:18.916Z,101350.81
2023-04-27T16:46:52.140Z,101349.78
2023-04-27T16:49:21.943Z,101357.41
2023-04-27T16:51:52.846Z,101356.38
2023-04-27T16:54:22.664Z,101344.09
2023-04-27T16:56:54.591Z,101326.88
2023-04-27T16:59:25.079Z,101335.38
2023-04-27T17:02:00.010Z,101338.78
2023-04-27T17:04:40.120Z,101324.88
2023-04-27T17:07:09.965Z,101334.47
2023-04-27T17:09:40.104Z,101332.75
2023-04-27T17:12:12.375Z,101337.94
2023-04-27T17:14:42.740Z,101336.25
2023-04-27T17:17:15.305Z,101337.22
2023-04-27T17:19:45.038Z,101307.03
2023-04-27T17:22:15.127Z,101311.28
2023-04-27T17:24:44.897Z,101330.25
2023-04-27T17:27:14.618Z,101316.28
2023-04-27T17:29:44.430Z,101342.13
2023-04-27T17:32:17.384Z,101329.31
2023-04-27T17:34:47.182Z,101336.81
2023-04-27T17:37:17.061Z,101328.22
2023-04-27T17:39:47.585Z,101321.22
2023-04-27T17:42:17.299Z,101306.69
2023-04-27T17:44:47.032Z,101299.72
2023-04-27T17:47:20.640Z,101318.78
2023-04-27T17:49:50.351Z,101314.34
2023-04-27T17:52:20.086Z,101309.91
2023-04-27T17:54:49.849Z,101298.47
2023-04-27T17:57:19.608Z,101293.03
2023-04-27T17:59:50.164Z,101310.31
2023-04-27T18:02:22.874Z,101282.19
2023-04-27T18:04:53.021Z,101289.94
2023-04-27T18:07:22.962Z,101297.56
2023-04-27T18:09:52.772Z,101296.69
2023-04-27T18:12:22.595Z,101289.66
2023-04-27T18:14:53.138Z,101291.25
2023-04-27T18:17:26.162Z,101277.34
2023-04-27T18:20:07.521Z,101274.59
2023-04-27T18:22:40.202Z,101285.16
2023-04-27T18:25:12.023Z,101309.28
2023-04-27T18:27:41.932Z,101296.47
2023-04-27T18:30:12.029Z,101298.06
2023-04-27T18:32:44.375Z,101251.16
2023-04-27T18:35:14.160Z,101298.50
2023-04-27T18:37:48.292Z,101308.75
2023-04-27T18:40:18.978Z,101284.63
2023-04-27T18:42:48.898Z,101311.31
2023-04-27T18:45:18.842Z,101302.50
2023-04-27T18:47:51.253Z,101304.31
2023-04-27T18:50:21.144Z,101300.72
2023-04-27T18:52:50.902Z,101277.50
2023-04-27T18:55:20.929Z,101305.44
2023-04-27T18:57:50.688Z,101300.38
2023-04-27T19:00:20.512Z,101308.28
2023-04-27T19:02:53.408Z,101292.03
2023-04-27T19:05:23.367Z,101277.13
2023-04-27T19:07:53.164Z,101307.44
2023-04-27T19:10:23.937Z,101292.69
2023-04-27T19:12:54.229Z,101294.31
2023-04-27T19:15:24.280Z,101281.44
2023-04-27T19:18:02.832Z,101226.88
2023-04-27T19:20:39.578Z,101288.03
2023-04-27T19:23:12.654Z,101231.00
2023-04-27T19:25:43.141Z,101267.47
2023-04-27T19:28:13.317Z,101280.22
2023-04-27T19:30:43.471Z,101311.25
2023-04-27T19:33:17.565Z,101304.50
2023-04-27T19:35:49.151Z,101288.91
2023-04-27T19:38:18.934Z,101281.06
2023-04-27T19:40:49.974Z,101306.88
2023-04-27T19:43:19.690Z,101315.31
2023-04-27T19:45:49.693Z,101313.72
2023-04-27T19:48:22.060Z,101310.44
2023-04-27T19:50:51.865Z,101307.63
2023-04-27T19:53:21.588Z,101298.94
2023-04-27T19:55:51.530Z,101307.16
2023-04-27T19:58:21.708Z,101300.41
2023-04-27T20:00:51.620Z,101282.91
2023-04-27T20:03:24.468Z,101285.31
2023-04-27T20:05:54.571Z,101312.44
2023-04-27T20:08:24.858Z,101315.41
2023-04-27T20:10:54.614Z,101302.34
2023-04-27T20:13:24.387Z,101132.63
2023-04-27T20:15:54.265Z,101298.69
2023-04-27T20:18:31.604Z,101287.38
2023-04-27T20:21:01.654Z,101293.97
2023-04-27T20:23:31.618Z,101291.53
2023-04-27T20:26:01.377Z,101308.88
2023-04-27T20:28:31.338Z,101307.19
2023-04-27T20:31:01.102Z,101294.13
2023-04-27T20:33:33.422Z,101304.50
2023-04-27T20:36:14.260Z,101300.09
2023-04-27T20:38:47.423Z,101276.00
2023-04-27T20:41:17.276Z,101259.13
2023-04-27T20:43:47.604Z,101262.69
2023-04-27T20:46:17.401Z,101257.41
2023-04-27T20:48:49.906Z,101280.09
2023-04-27T20:51:19.663Z,101254.06
2023-04-27T20:53:49.455Z,101285.22
2023-04-27T20:56:20.305Z,101279.66
2023-04-27T20:58:50.039Z,101258.50
2023-04-27T21:01:19.895Z,101275.38
2023-04-27T21:03:52.586Z,101259.59
2023-04-27T21:06:22.487Z,101247.31
2023-04-27T21:08:52.217Z,101267.25
2023-04-27T21:11:22.238Z,101271.28
2023-04-27T21:13:52.118Z,101275.31
2023-04-27T21:16:22.019Z,101257.06
2023-04-27T21:18:54.311Z,101213.66
2023-04-27T21:21:24.577Z,101243.31
2023-04-27T21:24:00.804Z,101252.53
2023-04-27T21:26:36.819Z,101253.19
2023-04-27T21:29:08.360Z,101253.19
2023-04-27T21:31:38.345Z,101224.81
2023-04-27T21:34:10.964Z,101258.59
2023-04-27T21:36:40.692Z,101225.59
2023-04-27T21:39:10.711Z,101235.78
2023-04-27T21:41:41.232Z,101247.72
2023-04-27T21:44:11.513Z,101237.31
2023-04-27T21:46:41.415Z,101234.53
2023-04-27T21:49:13.819Z,101218.66
2023-04-27T21:51:43.615Z,101240.06
2023-04-27T21:54:13.793Z,101233.28
2023-04-27T21:56:43.848Z,101212.69
2023-04-27T21:59:13.604Z,101211.69
2023-04-27T22:01:44.062Z,101180.47
2023-04-27T22:04:16.979Z,101205.44
2023-04-27T22:06:47.099Z,101200.84
2023-04-27T22:09:17.111Z,101213.22
2023-04-27T22:11:47.057Z,101218.53
2023-04-27T22:14:17.360Z,101214.38
2023-04-27T22:16:49.008Z,101213.22
2023-04-27T22:19:21.383Z,101171.44
2023-04-27T22:21:51.149Z,101195.59
2023-04-27T22:24:20.917Z,101194.41
2023-04-27T22:26:50.994Z,101174.91
2023-04-27T22:29:20.870Z,101195.59
2023-04-27T22:31:50.747Z,101139.66
2023-04-27T22:34:23.157Z,101147.66
2023-04-27T22:36:53.015Z,101190.59
2023-04-27T22:39:22.823Z,101178.13
2023-04-27T22:41:52.661Z,101171.03
2023-04-27T22:44:22.419Z,101182.19
2023-04-27T22:46:52.307Z,101176.19
2023-04-27T22:49:24.823Z,101178.63
2023-04-27T22:51:57.789Z,101162.72
2023-04-27T22:54:27.560Z,101151.06
2023-04-27T22:56:58.776Z,101140.72
2023-04-27T22:59:28.594Z,101150.03
2023-04-27T23:01:58.499Z,101162.09
2023-04-27T23:04:31.062Z,101154.25
2023-04-27T23:07:00.825Z,101165.44
2023-04-27T23:09:31.162Z,101108.50
2023-04-27T23:12:01.256Z,101153.38
2023-04-27T23:14:31.551Z,101147.25
2023-04-27T23:17:01.979Z,101104.38
2023-04-27T23:19:34.383Z,101148.84
2023-04-27T23:22:04.399Z,101147.88
2023-04-27T23:24:34.154Z,101137.50
2023-04-27T23:27:04.030Z,101107.19
2023-04-27T23:29:33.802Z,101123.25
2023-04-27T23:32:04.710Z,101132.03
2023-04-27T23:34:37.197Z,101104.69
2023-04-27T23:37:07.814Z,101128.25
2023-04-27T23:39:37.639Z,101101.81
2023-04-27T23:42:07.787Z,101067.16
2023-04-27T23:44:37.785Z,101113.69
2023-04-27T23:47:07.793Z,101123.50
2023-04-27T23:49:40.218Z,101109.97
2023-04-27T23:52:10.007Z,101044.91
2023-04-27T23:54:39.813Z,101068.94
2023-04-27T23:57:09.657Z,100982.03
2023-04-27T23:59:39.712Z,101094.22
